Time;durP1;ratioP1;P1;durP2;ratioP2;P2;SDS_P1;SDS_P2;PMS_P1;PMS_P2;Temp;Humidity;BMP_temperature;BMP_pressure;BME280_temperature;BME280_humidity;BME280_pressure;Samples;Min_cycle;Max_cycle;Signal;HPM_P1;HPM_P2
2023/11/25 00:00:52;;;;;;;1.77;1.67;;;2.70;99.90;;;;;;4899326;29;20447;-70
2023/11/25 00:03:18;;;;;;;2.00;1.30;;;2.60;99.90;;;;;;4898797;29;20451;-70
2023/11/25 00:05:44;;;;;;;2.13;1.30;;;2.60;99.90;;;;;;4898501;29;20447;-70
2023/11/25 00:08:10;;;;;;;2.03;1.30;;;2.60;99.90;;;;;;4898421;29;20227;-71
2023/11/25 00:10:35;;;;;;;2.70;1.73;;;2.60;99.90;;;;;;4899087;29;20705;-70
2023/11/25 00:13:02;;;;;;;9.73;2.20;;;2.60;99.90;;;;;;4895077;29;20440;-70
2023/11/25 00:15:28;;;;;;;2.97;1.50;;;2.50;99.90;;;;;;4894851;29;20204;-71
2023/11/25 00:17:54;;;;;;;6.73;2.00;;;2.50;99.90;;;;;;4894512;29;20439;-70
2023/11/25 00:20:21;;;;;;;3.77;1.63;;;2.50;99.90;;;;;;4894528;29;20509;-71
2023/11/25 00:22:46;;;;;;;2.60;2.00;;;2.50;99.90;;;;;;4894211;29;20443;-71
2023/11/25 00:25:12;;;;;;;2.47;1.47;;;2.60;99.90;;;;;;4894956;29;20447;-71
2023/11/25 00:27:38;;;;;;;4.60;1.40;;;2.60;99.90;;;;;;4897238;29;20218;-70
2023/11/25 00:30:05;;;;;;;1.57;1.10;;;2.60;99.90;;;;;;4897346;29;21017;-70
2023/11/25 00:32:36;;;;;;;3.83;1.60;;;2.60;99.90;;;;;;4890790;29;20436;-71
2023/11/25 00:35:03;;;;;;;4.40;1.70;;;2.60;99.90;;;;;;4889992;29;20505;-71
2023/11/25 00:37:28;;;;;;;1.77;1.30;;;2.60;99.90;;;;;;4897786;29;20439;-71
2023/11/25 00:39:54;;;;;;;4.87;1.73;;;2.60;99.90;;;;;;4897849;29;20482;-71
2023/11/25 00:42:21;;;;;;;3.90;1.77;;;2.60;99.90;;;;;;4893686;29;20194;-71
2023/11/25 00:44:46;;;;;;;3.17;1.33;;;2.70;99.90;;;;;;4898799;29;20183;-71
2023/11/25 00:47:13;;;;;;;4.23;1.40;;;2.70;99.90;;;;;;4897245;29;20978;-70
2023/11/25 00:49:40;;;;;;;5.90;2.13;;;2.70;99.90;;;;;;4898442;29;20262;-72
2023/11/25 00:52:06;;;;;;;2.60;2.30;;;2.60;99.90;;;;;;4898096;29;20443;-71
2023/11/25 00:54:32;;;;;;;7.20;2.60;;;2.70;99.90;;;;;;4897851;29;20431;-71
2023/11/25 00:57:03;;;;;;;4.47;1.93;;;2.70;99.90;;;;;;4894569;29;20842;-71
2023/11/25 00:59:29;;;;;;;7.50;2.00;;;2.70;99.90;;;;;;4895751;29;20638;-70
2023/11/25 01:01:55;;;;;;;4.43;1.50;;;2.70;99.90;;;;;;4899137;29;20522;-70
2023/11/25 01:04:20;;;;;;;4.37;1.93;;;2.70;99.90;;;;;;4897679;29;20191;-71
2023/11/25 01:06:49;;;;;;;4.07;1.70;;;2.70;99.90;;;;;;4896800;29;20290;-71
2023/11/25 01:09:16;;;;;;;5.43;1.73;;;2.70;99.90;;;;;;4898782;29;20561;-71
2023/11/25 01:11:45;;;;;;;3.87;1.43;;;2.70;99.90;;;;;;4898692;29;20443;-70
2023/11/25 01:14:12;;;;;;;6.33;1.67;;;2.70;99.90;;;;;;4899019;29;20465;-71
2023/11/25 01:16:38;;;;;;;11.47;1.80;;;2.70;99.90;;;;;;4894092;29;20443;-70
2023/11/25 01:19:04;;;;;;;1.93;1.00;;;2.70;99.90;;;;;;4897875;29;20469;-70
2023/11/25 01:21:30;;;;;;;6.63;2.00;;;2.70;99.90;;;;;;4898628;29;20498;-70
2023/11/25 01:23:55;;;;;;;1.33;1.23;;;2.60;99.90;;;;;;4897966;29;20901;-71
2023/11/25 01:26:22;;;;;;;4.13;1.53;;;2.50;99.90;;;;;;4897795;29;20207;-70
2023/11/25 01:28:48;;;;;;;6.20;1.40;;;2.40;99.90;;;;;;4896220;29;20206;-71
2023/11/25 01:31:14;;;;;;;3.90;2.50;;;2.40;99.90;;;;;;4897345;29;20521;-70
2023/11/25 01:33:43;;;;;;;3.50;1.73;;;2.40;99.90;;;;;;4897708;29;20175;-70
2023/11/25 01:36:11;;;;;;;3.33;1.23;;;2.40;99.90;;;;;;4898414;29;20423;-70
2023/11/25 01:38:37;;;;;;;1.20;1.10;;;2.30;99.90;;;;;;4897501;29;20447;-71
2023/11/25 01:41:04;;;;;;;3.50;1.43;;;2.30;99.90;;;;;;4898454;29;20974;-71
2023/11/25 01:43:32;;;;;;;4.43;1.10;;;2.30;99.90;;;;;;4898292;29;20424;-70
2023/11/25 01:46:01;;;;;;;2.20;1.60;;;2.20;99.90;;;;;;4897159;29;20836;-72
2023/11/25 01:48:28;;;;;;;4.93;1.50;;;2.20;99.90;;;;;;4895087;29;20469;-71
2023/11/25 01:50:54;;;;;;;6.63;1.20;;;2.20;99.90;;;;;;4897985;29;20442;-70
2023/11/25 01:53:20;;;;;;;1.53;1.00;;;2.20;99.90;;;;;;4892096;29;20446;-70
2023/11/25 01:55:47;;;;;;;5.60;1.63;;;2.20;99.90;;;;;;4897486;29;20431;-70
2023/11/25 01:58:17;;;;;;;3.37;1.50;;;2.20;99.90;;;;;;4894621;29;20773;-71
2023/11/25 02:00:46;;;;;;;1.37;1.27;;;2.20;99.90;;;;;;4893903;29;20487;-70
2023/11/25 02:03:16;;;;;;;2.37;1.83;;;2.20;99.90;;;;;;4897173;29;20443;-71
2023/11/25 02:05:43;;;;;;;2.70;1.53;;;2.30;99.90;;;;;;4892798;29;20424;-71
2023/11/25 02:08:09;;;;;;;3.10;1.00;;;2.30;99.90;;;;;;4889886;29;20439;-71
2023/11/25 02:10:35;;;;;;;5.70;1.63;;;2.30;99.90;;;;;;4896078;29;20473;-71
2023/11/25 02:13:08;;;;;;;2.60;1.20;;;2.30;99.90;;;;;;4897418;29;20182;-70
2023/11/25 02:15:34;;;;;;;3.00;1.60;;;2.30;99.90;;;;;;4893821;29;20428;-71
2023/11/25 02:18:00;;;;;;;4.70;2.30;;;2.30;99.90;;;;;;4878720;29;20440;-71
2023/11/25 02:20:37;;;;;;;2.37;1.63;;;2.40;99.90;;;;;;4896896;29;21033;-70
2023/11/25 02:23:04;;;;;;;2.30;2.10;;;2.40;99.90;;;;;;4896624;29;20729;-71
2023/11/25 02:25:30;;;;;;;3.70;1.60;;;2.40;99.90;;;;;;4885630;29;20514;-70
2023/11/25 02:27:55;;;;;;;2.93;1.33;;;2.50;99.90;;;;;;4894387;29;20570;-71
2023/11/25 02:30:26;;;;;;;4.30;1.33;;;2.50;99.90;;;;;;4893894;29;20230;-72
2023/11/25 02:32:52;;;;;;;4.93;2.10;;;2.50;99.90;;;;;;4896412;29;20715;-71
2023/11/25 02:35:18;;;;;;;6.97;1.80;;;2.50;99.90;;;;;;4893561;29;20530;-71
2023/11/25 02:37:45;;;;;;;2.77;1.20;;;2.50;99.90;;;;;;4896493;29;20199;-71
2023/11/25 02:40:16;;;;;;;4.23;1.40;;;2.50;99.90;;;;;;4895932;29;20525;-71
2023/11/25 02:42:43;;;;;;;4.67;1.77;;;2.40;99.90;;;;;;4893325;29;20517;-71
2023/11/25 02:45:11;;;;;;;4.67;2.10;;;2.30;99.90;;;;;;4894227;29;20440;-71
2023/11/25 02:47:37;;;;;;;4.10;1.60;;;2.20;99.90;;;;;;4892976;29;20483;-71
2023/11/25 02:50:03;;;;;;;2.43;1.70;;;2.20;99.90;;;;;;4894769;29;20517;-72
2023/11/25 02:52:28;;;;;;;8.13;1.50;;;2.10;99.90;;;;;;4894445;29;20557;-71
2023/11/25 02:54:54;;;;;;;6.00;2.33;;;2.00;99.90;;;;;;4893050;29;20697;-71
2023/11/25 02:57:20;;;;;;;3.87;1.80;;;2.00;99.90;;;;;;4890872;29;20271;-71
2023/11/25 02:59:47;;;;;;;3.83;1.93;;;2.00;99.90;;;;;;4892569;29;20354;-71
2023/11/25 03:02:13;;;;;;;3.07;1.60;;;1.90;99.90;;;;;;4895617;29;20202;-72
2023/11/25 03:04:45;;;;;;;4.77;1.80;;;2.00;99.90;;;;;;4895111;29;20454;-71
2023/11/25 03:07:12;;;;;;;3.20;2.07;;;1.90;99.90;;;;;;4896627;29;20471;-72
2023/11/25 03:09:38;;;;;;;1.97;1.60;;;1.90;99.90;;;;;;4894291;29;20466;-71
2023/11/25 03:12:05;;;;;;;8.00;2.33;;;1.90;99.90;;;;;;4893767;29;20524;-71
2023/11/25 03:14:31;;;;;;;8.47;2.50;;;1.90;99.90;;;;;;4894741;29;20522;-71
2023/11/25 03:16:57;;;;;;;4.67;2.13;;;2.00;99.90;;;;;;4894827;29;20457;-71
2023/11/25 03:19:23;;;;;;;2.87;2.00;;;2.00;99.90;;;;;;4892328;29;20470;-71
2023/11/25 03:21:50;;;;;;;2.63;1.90;;;2.00;99.90;;;;;;4894677;29;20176;-71
2023/11/25 03:24:16;;;;;;;4.77;2.40;;;2.10;99.90;;;;;;4896363;29;20183;-71
2023/11/25 03:26:43;;;;;;;2.07;1.87;;;2.20;99.90;;;;;;4882107;29;20475;-71
2023/11/25 03:29:09;;;;;;;7.60;3.03;;;2.20;99.90;;;;;;4890997;29;20471;-71
2023/11/25 03:31:43;;;;;;;6.23;2.27;;;2.30;99.90;;;;;;4890408;29;20463;-71
2023/11/25 03:34:09;;;;;;;2.80;2.17;;;2.30;99.90;;;;;;4889295;29;20834;-71
2023/11/25 03:36:35;;;;;;;6.57;2.20;;;2.30;99.90;;;;;;4895469;29;21101;-71
2023/11/25 03:39:01;;;;;;;11.93;3.07;;;2.40;99.90;;;;;;4884170;29;20463;-72
2023/11/25 03:41:28;;;;;;;2.90;2.53;;;2.40;99.90;;;;;;4888872;29;20455;-71
2023/11/25 03:43:53;;;;;;;3.07;2.23;;;2.40;99.90;;;;;;4896002;29;20187;-71
2023/11/25 03:46:19;;;;;;;5.30;2.10;;;2.30;99.90;;;;;;4883351;29;20494;-71
2023/11/25 03:48:45;;;;;;;3.40;2.00;;;2.30;99.90;;;;;;4888249;29;20222;-71
2023/11/25 03:51:10;;;;;;;4.73;2.17;;;2.30;99.90;;;;;;4895012;29;20183;-72
2023/11/25 03:53:36;;;;;;;3.20;2.37;;;2.30;99.90;;;;;;4893802;29;20947;-71
2023/11/25 03:56:02;;;;;;;3.47;1.90;;;2.40;99.90;;;;;;4892191;29;20189;-71
2023/11/25 03:58:27;;;;;;;3.30;2.47;;;2.40;99.90;;;;;;4890520;29;20187;-71
2023/11/25 04:00:53;;;;;;;5.33;2.37;;;2.40;99.90;;;;;;4882969;29;20229;-71
2023/11/25 04:03:18;;;;;;;4.80;2.37;;;2.40;99.90;;;;;;4895397;29;20339;-71
2023/11/25 04:05:44;;;;;;;3.77;2.47;;;2.30;99.90;;;;;;4894796;29;20202;-71
2023/11/25 04:08:09;;;;;;;4.50;2.47;;;2.30;99.90;;;;;;4895955;29;20197;-71
2023/11/25 04:10:36;;;;;;;5.20;2.37;;;2.30;99.90;;;;;;4895593;29;20210;-71
2023/11/25 04:13:02;;;;;;;4.60;2.50;;;2.30;99.90;;;;;;4896694;29;20271;-71
2023/11/25 04:15:28;;;;;;;2.93;2.00;;;2.20;99.90;;;;;;4897228;29;20440;-71
2023/11/25 04:17:53;;;;;;;4.63;2.40;;;2.10;99.90;;;;;;4897422;29;20194;-71
2023/11/25 04:20:24;;;;;;;2.70;2.20;;;2.10;99.90;;;;;;4893018;29;20218;-72
2023/11/25 04:22:50;;;;;;;4.07;2.27;;;2.00;99.90;;;;;;4899520;29;20183;-71
2023/11/25 04:25:16;;;;;;;8.20;2.00;;;2.00;99.90;;;;;;4896495;29;20442;-72
2023/11/25 04:27:49;;;;;;;7.23;2.23;;;2.00;99.90;;;;;;4894195;29;20467;-71
2023/11/25 04:30:16;;;;;;;3.20;1.53;;;2.00;99.90;;;;;;4893762;29;20448;-71
2023/11/25 04:32:43;;;;;;;3.77;2.00;;;2.10;99.90;;;;;;4890267;29;21138;-71
2023/11/25 04:35:09;;;;;;;4.03;1.80;;;2.20;99.90;;;;;;4897156;29;20955;-72
2023/11/25 04:37:37;;;;;;;5.27;2.50;;;2.20;99.90;;;;;;4897102;29;20803;-71
2023/11/25 04:40:06;;;;;;;4.67;1.90;;;2.20;99.90;;;;;;4896695;29;20475;-71
2023/11/25 04:42:32;;;;;;;4.00;2.03;;;2.20;99.90;;;;;;4888687;29;21039;-71
2023/11/25 04:44:58;;;;;;;4.97;1.87;;;2.30;99.90;;;;;;4888378;29;20971;-71
2023/11/25 04:47:23;;;;;;;4.90;1.83;;;2.30;99.90;;;;;;4897404;29;20463;-71
2023/11/25 04:49:49;;;;;;;3.73;1.53;;;2.30;99.90;;;;;;4896421;29;20194;-71
2023/11/25 04:52:14;;;;;;;2.03;1.83;;;2.30;99.90;;;;;;4898060;29;20191;-71
2023/11/25 04:54:41;;;;;;;1.90;1.40;;;2.30;99.90;;;;;;4898148;29;20558;-71
2023/11/25 04:57:07;;;;;;;5.37;2.00;;;2.20;99.90;;;;;;4897120;29;20182;-71
2023/11/25 04:59:34;;;;;;;3.90;1.40;;;2.10;99.90;;;;;;4888986;29;20463;-71
2023/11/25 05:02:01;;;;;;;5.10;2.17;;;2.20;99.90;;;;;;4894046;29;20183;-70
2023/11/25 05:04:26;;;;;;;5.33;1.83;;;2.20;99.90;;;;;;4894438;29;20523;-71
2023/11/25 05:06:52;;;;;;;8.53;1.80;;;2.20;99.90;;;;;;4894566;29;20570;-71
2023/11/25 05:09:18;;;;;;;4.40;1.70;;;2.10;99.90;;;;;;4897740;29;20561;-71
2023/11/25 05:11:46;;;;;;;4.23;2.10;;;2.00;99.90;;;;;;4894383;29;20613;-71
2023/11/25 05:14:12;;;;;;;9.57;2.20;;;2.00;99.90;;;;;;4891628;29;20831;-72
2023/11/25 05:16:38;;;;;;;2.70;1.70;;;1.90;99.90;;;;;;4890673;29;20439;-72
2023/11/25 05:19:03;;;;;;;5.47;1.87;;;1.90;99.90;;;;;;4896375;29;20234;-71
2023/11/25 05:21:30;;;;;;;3.20;2.23;;;1.90;99.90;;;;;;4886271;29;20245;-70
2023/11/25 05:23:55;;;;;;;4.73;2.23;;;1.90;99.90;;;;;;4883548;29;20230;-71
2023/11/25 05:26:23;;;;;;;2.83;1.87;;;1.90;99.90;;;;;;4883801;29;20468;-72
2023/11/25 05:28:48;;;;;;;2.60;1.87;;;1.90;99.90;;;;;;4894569;29;20478;-71
2023/11/25 05:31:14;;;;;;;1.77;1.63;;;1.90;99.90;;;;;;4892110;29;21098;-71
2023/11/25 05:33:39;;;;;;;8.27;2.90;;;1.90;99.90;;;;;;4898323;29;20187;-71
2023/11/25 05:36:05;;;;;;;2.37;1.57;;;1.90;99.90;;;;;;4885923;29;20201;-71
2023/11/25 05:38:31;;;;;;;3.07;1.73;;;1.70;99.90;;;;;;4896335;29;20274;-71
2023/11/25 05:40:57;;;;;;;1.63;1.43;;;1.70;99.90;;;;;;4897470;29;20471;-71
2023/11/25 05:43:25;;;;;;;4.37;1.77;;;1.60;99.90;;;;;;4897279;29;20250;-72
2023/11/25 05:45:50;;;;;;;3.07;1.83;;;1.60;99.90;;;;;;4888299;29;20436;-71
2023/11/25 05:48:17;;;;;;;6.07;2.27;;;1.50;99.90;;;;;;4896714;29;20943;-71
2023/11/25 05:50:42;;;;;;;3.93;2.50;;;1.40;99.90;;;;;;4897999;29;20219;-72
2023/11/25 05:53:08;;;;;;;3.13;1.40;;;1.40;99.90;;;;;;4891343;29;20487;-71
2023/11/25 05:55:33;;;;;;;4.27;1.70;;;1.40;99.90;;;;;;4897871;29;20557;-71
2023/11/25 05:57:59;;;;;;;3.60;1.37;;;1.30;99.90;;;;;;4897168;29;20194;-72
2023/11/25 06:00:25;;;;;;;9.37;2.00;;;1.30;99.90;;;;;;4896674;29;20294;-71
2023/11/25 06:02:52;;;;;;;2.07;1.63;;;1.30;99.90;;;;;;4898438;29;20190;-71
2023/11/25 06:05:18;;;;;;;2.90;1.50;;;1.20;99.90;;;;;;4898732;29;20690;-70
2023/11/25 06:07:44;;;;;;;5.33;2.00;;;1.20;99.90;;;;;;4898636;29;20471;-70
2023/11/25 06:10:09;;;;;;;6.17;2.40;;;1.20;99.90;;;;;;4899046;29;20219;-71
2023/11/25 06:12:35;;;;;;;1.80;1.70;;;1.20;99.90;;;;;;4898399;29;20453;-71
2023/11/25 06:15:01;;;;;;;1.77;1.60;;;1.20;99.90;;;;;;4898044;29;20191;-71
2023/11/25 06:17:26;;;;;;;6.63;2.67;;;1.20;99.90;;;;;;4897982;29;20453;-71
2023/11/25 06:19:53;;;;;;;2.30;1.60;;;1.10;99.90;;;;;;4887198;29;20214;-71
2023/11/25 06:22:22;;;;;;;2.40;1.63;;;1.20;99.90;;;;;;4897519;29;20600;-70
2023/11/25 06:24:47;;;;;;;5.93;2.10;;;1.20;99.90;;;;;;4897036;29;20447;-72
2023/11/25 06:27:13;;;;;;;3.17;2.33;;;1.30;99.90;;;;;;4897007;29;20499;-71
2023/11/25 06:29:39;;;;;;;6.60;3.07;;;1.40;99.90;;;;;;4895530;29;20206;-71
2023/11/25 06:32:06;;;;;;;5.70;1.90;;;1.40;99.90;;;;;;4896474;29;20185;-71
2023/11/25 06:34:32;;;;;;;4.43;1.97;;;1.50;99.90;;;;;;4896715;29;20419;-71
2023/11/25 06:36:58;;;;;;;3.27;1.60;;;1.50;99.90;;;;;;4897110;29;20434;-71
2023/11/25 06:39:25;;;;;;;3.23;1.50;;;1.60;99.90;;;;;;4896533;29;20478;-70
2023/11/25 06:41:53;;;;;;;1.53;1.33;;;1.70;99.90;;;;;;4896034;29;20697;-72
2023/11/25 06:44:19;;;;;;;6.17;2.40;;;1.70;99.90;;;;;;4897121;29;20423;-71
2023/11/25 06:46:44;;;;;;;6.47;2.37;;;1.80;99.90;;;;;;4896186;29;20514;-71
2023/11/25 06:49:13;;;;;;;3.20;2.00;;;1.70;99.90;;;;;;4896985;29;20674;-71
2023/11/25 06:51:41;;;;;;;4.47;2.50;;;1.80;99.90;;;;;;4911083;29;20211;-71
2023/11/25 06:54:08;;;;;;;6.00;3.57;;;1.90;99.90;;;;;;4894418;29;20443;-72
2023/11/25 06:56:34;;;;;;;6.40;1.93;;;2.00;99.90;;;;;;4888461;29;20438;-71
2023/11/25 06:59:00;;;;;;;3.40;1.80;;;2.00;99.90;;;;;;4896704;29;20847;-70
2023/11/25 07:01:26;;;;;;;2.73;1.57;;;2.00;99.90;;;;;;4896363;29;20498;-71
2023/11/25 07:03:51;;;;;;;4.77;2.00;;;2.10;99.90;;;;;;4892686;29;20317;-72
2023/11/25 07:06:18;;;;;;;5.70;1.73;;;2.10;99.90;;;;;;4895985;29;20275;-71
2023/11/25 07:08:44;;;;;;;3.60;1.70;;;2.20;99.90;;;;;;4890377;29;20182;-71
2023/11/25 07:11:10;;;;;;;6.23;2.13;;;2.20;99.90;;;;;;4878314;29;20964;-70
2023/11/25 07:13:36;;;;;;;9.53;1.77;;;2.10;99.90;;;;;;4905583;29;20837;-72
2023/11/25 07:16:04;;;;;;;2.73;1.93;;;2.10;99.90;;;;;;4896676;29;20431;-71
2023/11/25 07:18:31;;;;;;;4.30;2.10;;;2.20;99.90;;;;;;4896646;29;20423;-70
2023/11/25 07:20:58;;;;;;;4.77;2.67;;;2.20;99.90;;;;;;4896570;29;20447;-72
2023/11/25 07:23:23;;;;;;;12.30;4.43;;;2.20;99.90;;;;;;4894220;29;20916;-71
2023/11/25 07:25:49;;;;;;;11.40;3.07;;;2.20;99.90;;;;;;4896150;29;20508;-72
2023/11/25 07:28:15;;;;;;;11.70;4.53;;;2.30;99.90;;;;;;4895561;29;20205;-71
2023/11/25 07:30:41;;;;;;;5.80;3.33;;;2.40;99.90;;;;;;4911143;29;20207;-71
2023/11/25 07:33:08;;;;;;;6.10;2.77;;;2.50;99.90;;;;;;4896785;29;20482;-71
2023/11/25 07:35:34;;;;;;;4.63;3.13;;;2.50;99.90;;;;;;4896825;29;20423;-71
2023/11/25 07:38:00;;;;;;;5.97;2.93;;;2.50;99.90;;;;;;4893633;29;20442;-70
2023/11/25 07:40:26;;;;;;;9.30;3.80;;;2.50;99.90;;;;;;4941599;23;20503;-72
2023/11/25 07:42:51;;;;;;;8.43;3.40;;;2.50;99.90;;;;;;4948328;29;20448;-72
2023/11/25 07:45:17;;;;;;;2.03;1.93;;;2.50;99.90;;;;;;4949059;29;20185;-72
2023/11/25 07:47:44;;;;;;;3.70;2.63;;;2.50;99.90;;;;;;4956685;28;20239;-72
2023/11/25 07:50:10;;;;;;;5.13;2.50;;;2.50;99.90;;;;;;4957333;28;20195;-72
2023/11/25 07:52:36;;;;;;;3.67;3.20;;;2.50;99.90;;;;;;4954990;28;20444;-71
2023/11/25 07:55:04;;;;;;;6.63;2.60;;;2.60;99.90;;;;;;4955658;28;20447;-72
2023/11/25 07:57:30;;;;;;;15.00;3.20;;;2.60;99.90;;;;;;4956764;29;20483;-71
2023/11/25 07:59:56;;;;;;;4.53;2.13;;;2.60;99.90;;;;;;4957059;28;20444;-72
2023/11/25 08:02:21;;;;;;;7.40;2.30;;;2.60;99.90;;;;;;4956089;29;20447;-72
2023/11/25 08:04:47;;;;;;;4.97;3.03;;;2.70;99.90;;;;;;4954982;29;20204;-72
2023/11/25 08:07:12;;;;;;;4.70;3.23;;;2.60;99.90;;;;;;4955777;29;20283;-72
2023/11/25 08:09:38;;;;;;;3.97;2.70;;;2.60;99.90;;;;;;4956997;29;20197;-71
2023/11/25 08:12:04;;;;;;;2.67;2.10;;;2.80;99.90;;;;;;4956311;28;20189;-72
2023/11/25 08:14:30;;;;;;;3.50;2.80;;;2.90;99.90;;;;;;4955895;28;20494;-72
2023/11/25 08:16:56;;;;;;;4.90;3.77;;;2.90;99.90;;;;;;4956326;29;20235;-71
2023/11/25 08:19:21;;;;;;;7.10;4.53;;;3.00;99.90;;;;;;4956033;28;20201;-71
2023/11/25 08:21:52;;;;;;;4.03;3.17;;;3.10;99.90;;;;;;4955862;28;20448;-71
2023/11/25 08:24:18;;;;;;;6.47;3.40;;;3.10;99.90;;;;;;4956007;28;20177;-71
2023/11/25 08:26:45;;;;;;;5.93;2.67;;;3.10;99.90;;;;;;4953623;29;20479;-71
2023/11/25 08:29:13;;;;;;;3.73;2.87;;;3.20;99.90;;;;;;4956359;28;20957;-72
2023/11/25 08:31:39;;;;;;;4.63;2.80;;;3.30;99.90;;;;;;4955816;29;20444;-72
2023/11/25 08:34:09;;;;;;;3.70;1.87;;;3.30;99.90;;;;;;4954510;28;20476;-71
2023/11/25 08:36:52;;;;;;;3.07;1.47;;;3.30;99.90;;;;;;4955354;28;20188;-72
2023/11/25 08:39:20;;;;;;;6.13;2.60;;;3.40;99.90;;;;;;4956179;28;20455;-72
2023/11/25 08:41:47;;;;;;;2.70;2.20;;;3.50;99.90;;;;;;4955550;28;20863;-71
2023/11/25 08:44:13;;;;;;;4.63;1.93;;;3.60;99.90;;;;;;4955408;28;20856;-72
2023/11/25 08:46:44;;;;;;;3.93;1.63;;;3.70;99.90;;;;;;4953489;28;20475;-73
2023/11/25 08:49:12;;;;;;;3.60;1.93;;;3.60;99.90;;;;;;4955353;29;20495;-71
2023/11/25 08:51:45;;;;;;;3.43;1.77;;;3.60;99.90;;;;;;4955549;28;20433;-72
2023/11/25 08:54:12;;;;;;;5.30;1.60;;;3.50;99.90;;;;;;4955997;29;20483;-72
2023/11/25 08:56:40;;;;;;;6.63;2.43;;;3.60;99.90;;;;;;4955080;28;20475;-72
2023/11/25 08:59:06;;;;;;;4.50;1.80;;;3.60;99.90;;;;;;4954894;28;20429;-72
2023/11/25 09:01:42;;;;;;;8.73;5.70;;;3.60;99.90;;;;;;4956127;28;20435;-72
2023/11/25 09:04:09;;;;;;;4.90;1.77;;;3.70;99.90;;;;;;4954035;28;20238;-72
2023/11/25 09:06:39;;;;;;;6.13;2.07;;;3.70;99.90;;;;;;4953130;28;20468;-71
2023/11/25 09:09:07;;;;;;;2.57;1.20;;;3.70;99.90;;;;;;4950271;28;20488;-72
2023/11/25 09:11:33;;;;;;;4.63;1.97;;;3.80;99.90;;;;;;4955123;28;20444;-71
2023/11/25 09:13:59;;;;;;;8.53;2.20;;;3.90;99.90;;;;;;4955808;28;20432;-72
2023/11/25 09:16:27;;;;;;;3.40;1.80;;;3.90;99.90;;;;;;4954942;28;20448;-71
2023/11/25 09:18:54;;;;;;;5.27;2.30;;;3.90;99.90;;;;;;4953619;28;20185;-74
2023/11/25 09:21:19;;;;;;;5.40;2.17;;;4.00;99.90;;;;;;4953251;28;20463;-72
2023/11/25 09:23:45;;;;;;;7.80;2.50;;;4.00;99.90;;;;;;4955328;28;20439;-71
2023/11/25 09:26:11;;;;;;;6.63;2.10;;;4.00;99.90;;;;;;4944785;29;20177;-71
2023/11/25 09:28:37;;;;;;;7.10;2.50;;;4.00;99.90;;;;;;4952422;28;20519;-71
2023/11/25 09:31:02;;;;;;;10.33;2.77;;;3.90;99.90;;;;;;4953299;29;20200;-71
2023/11/25 09:33:28;;;;;;;7.03;2.87;;;3.80;99.90;;;;;;4953656;28;20628;-71
2023/11/25 09:35:53;;;;;;;4.70;2.30;;;3.90;99.90;;;;;;4953121;29;20540;-70
2023/11/25 09:38:19;;;;;;;4.77;2.67;;;3.80;99.90;;;;;;4952822;29;20640;-72
2023/11/25 09:40:45;;;;;;;11.03;2.37;;;3.90;99.90;;;;;;4952976;29;20776;-70
2023/11/25 09:43:11;;;;;;;8.27;2.90;;;3.90;99.90;;;;;;4954432;28;20172;-72
2023/11/25 09:45:37;;;;;;;4.13;2.17;;;4.00;99.90;;;;;;4953935;28;20938;-71
2023/11/25 09:48:03;;;;;;;6.30;2.40;;;4.10;99.90;;;;;;4953050;28;20970;-72
2023/11/25 09:50:28;;;;;;;7.90;3.83;;;4.20;99.90;;;;;;4952972;28;20464;-72
2023/11/25 09:52:55;;;;;;;6.77;2.60;;;4.60;99.90;;;;;;4954450;29;20447;-74
2023/11/25 09:55:22;;;;;;;8.70;2.57;;;4.80;99.90;;;;;;4947234;29;20192;-74
2023/11/25 09:57:59;;;;;;;6.27;2.43;;;4.80;99.90;;;;;;4946848;29;20449;-74
2023/11/25 10:00:25;;;;;;;6.23;2.30;;;4.90;99.90;;;;;;4955015;28;20812;-75
2023/11/25 10:02:55;;;;;;;8.60;2.87;;;5.30;99.90;;;;;;4954646;28;21006;-74
2023/11/25 10:05:22;;;;;;;12.33;3.03;;;5.50;99.90;;;;;;4954625;28;20432;-72
2023/11/25 10:07:47;;;;;;;12.43;3.27;;;5.70;99.90;;;;;;4953059;28;20468;-72
2023/11/25 10:10:16;;;;;;;8.70;2.30;;;6.10;99.90;;;;;;4951155;28;20467;-72
2023/11/25 10:12:42;;;;;;;3.90;2.30;;;6.40;99.90;;;;;;4954489;28;20201;-73
2023/11/25 10:15:10;;;;;;;5.50;2.50;;;7.10;99.90;;;;;;4954407;28;20460;-72
2023/11/25 10:17:36;;;;;;;5.83;2.67;;;7.20;99.90;;;;;;4953086;29;20440;-72
2023/11/25 10:20:18;;;;;;;5.47;2.40;;;7.20;99.90;;;;;;4952780;28;20539;-72
2023/11/25 10:22:56;;;;;;;8.90;3.67;;;7.00;99.90;;;;;;4954621;28;20224;-72
2023/11/25 10:25:21;;;;;;;5.10;2.47;;;6.50;99.90;;;;;;4952895;28;20534;-73
2023/11/25 10:27:47;;;;;;;8.63;2.57;;;6.40;99.90;;;;;;4953151;29;20555;-73
2023/11/25 10:30:14;;;;;;;6.63;2.57;;;5.90;99.90;;;;;;4952005;29;20272;-72
2023/11/25 10:32:40;;;;;;;8.47;2.60;;;5.70;99.90;;;;;;4949091;29;20548;-72
2023/11/25 10:35:08;;;;;;;7.80;2.93;;;5.70;99.90;;;;;;4953483;28;20484;-72
2023/11/25 10:37:34;;;;;;;7.57;2.23;;;6.70;99.90;;;;;;4953085;28;20468;-71
2023/11/25 10:40:00;;;;;;;13.20;4.00;;;8.40;99.90;;;;;;4952571;28;20640;-70
2023/11/25 10:42:27;;;;;;;7.87;2.63;;;10.40;99.90;;;;;;4952766;28;20851;-71
2023/11/25 10:44:53;;;;;;;8.87;2.30;;;12.60;99.90;;;;;;4954003;28;20428;-71
2023/11/25 10:47:30;;;;;;;7.57;2.83;;;13.60;97.60;;;;;;4952582;29;20504;-72
2023/11/25 10:49:56;;;;;;;9.57;2.43;;;12.20;99.90;;;;;;4953202;28;20239;-71
2023/11/25 10:52:23;;;;;;;9.17;3.40;;;11.50;99.90;;;;;;4951262;29;20440;-71
2023/11/25 10:54:50;;;;;;;6.37;2.93;;;12.50;99.90;;;;;;4953404;28;20416;-70
2023/11/25 10:57:18;;;;;;;10.13;2.57;;;14.70;93.90;;;;;;4952925;28;20841;-71
2023/11/25 10:59:45;;;;;;;5.80;2.67;;;16.00;90.80;;;;;;4953927;28;20442;-71
2023/11/25 11:02:20;;;;;;;5.40;2.60;;;17.50;75.40;;;;;;4954240;28;20505;-71
2023/11/25 11:04:50;;;;;;;3.63;2.40;;;18.20;68.20;;;;;;4953226;28;20467;-72
2023/11/25 11:07:17;;;;;;;4.43;2.73;;;16.70;66.20;;;;;;4951950;28;20541;-71
2023/11/25 11:09:45;;;;;;;6.70;3.27;;;14.20;75.40;;;;;;4953911;28;20531;-72
2023/11/25 11:12:27;;;;;;;9.53;3.27;;;12.50;85.90;;;;;;4950403;28;20481;-71
2023/11/25 11:15:03;;;;;;;8.80;3.10;;;11.80;92.60;;;;;;4953846;28;20425;-71
2023/11/25 11:17:41;;;;;;;5.47;2.77;;;11.10;96.50;;;;;;4947210;29;20443;-70
2023/11/25 11:20:12;;;;;;;6.37;2.70;;;10.20;99.80;;;;;;4954127;28;20819;-71
2023/11/25 11:22:40;;;;;;;8.00;2.67;;;9.30;99.90;;;;;;4959566;28;20444;-71
2023/11/25 11:25:14;;;;;;;9.70;3.23;;;9.30;99.90;;;;;;4959708;28;20424;-71
2023/11/25 11:27:46;;;;;;;6.33;2.77;;;10.40;99.90;;;;;;4954594;29;20491;-71
2023/11/25 11:30:40;;;;;;;4.10;2.30;;;13.00;97.50;;;;;;4957536;29;20451;-71
2023/11/25 11:33:06;;;;;;;9.33;5.00;;;13.30;92.80;;;;;;4957240;28;20439;-71
2023/11/25 11:35:40;;;;;;;11.53;3.40;;;13.50;91.80;;;;;;4959275;28;20431;-71
2023/11/25 11:38:26;;;;;;;4.37;2.70;;;11.90;97.20;;;;;;4959570;28;20455;-71
2023/11/25 11:41:00;;;;;;;9.37;2.40;;;11.30;99.40;;;;;;4957452;28;20484;-72
2023/11/25 11:43:29;;;;;;;3.53;1.90;;;10.90;99.90;;;;;;4952051;29;20461;-71
2023/11/25 11:45:55;;;;;;;4.53;2.03;;;10.50;99.90;;;;;;4957904;28;20440;-72
2023/11/25 11:48:22;;;;;;;8.10;2.37;;;9.40;99.90;;;;;;4958986;29;20474;-71
2023/11/25 11:50:54;;;;;;;5.90;2.17;;;7.90;99.90;;;;;;4959613;28;20317;-70
2023/11/25 11:53:21;;;;;;;4.30;2.27;;;7.20;99.90;;;;;;4957218;28;20830;-71
2023/11/25 11:55:57;;;;;;;4.10;3.00;;;6.70;99.90;;;;;;4958584;28;20451;-70
2023/11/25 11:58:27;;;;;;;2.97;1.57;;;6.50;99.90;;;;;;4952128;29;20519;-72
2023/11/25 12:01:05;;;;;;;5.13;2.17;;;6.00;99.90;;;;;;4958515;28;20932;-71
2023/11/25 12:03:32;;;;;;;9.70;2.77;;;5.70;99.90;;;;;;4954221;29;20450;-70
2023/11/25 12:05:59;;;;;;;2.17;1.77;;;5.20;99.90;;;;;;4958164;28;20447;-71
2023/11/25 12:08:25;;;;;;;12.00;2.30;;;5.00;99.90;;;;;;4959407;28;20459;-70
2023/11/25 12:10:51;;;;;;;5.60;2.57;;;5.00;99.90;;;;;;4959329;28;20809;-73
2023/11/25 12:13:37;;;;;;;5.03;1.70;;;5.00;99.90;;;;;;4957948;29;20443;-71
2023/11/25 12:16:03;;;;;;;4.10;1.50;;;5.10;99.90;;;;;;4957613;28;20506;-70
2023/11/25 12:18:30;;;;;;;5.07;1.77;;;5.00;99.90;;;;;;4959395;28;20424;-72
2023/11/25 12:20:57;;;;;;;6.30;1.90;;;4.80;99.90;;;;;;4958613;28;20959;-70
2023/11/25 12:23:26;;;;;;;5.20;1.80;;;4.80;99.90;;;;;;4959030;28;20463;-71
2023/11/25 12:25:52;;;;;;;3.63;2.00;;;4.80;99.90;;;;;;4958885;29;20432;-72
2023/11/25 12:28:17;;;;;;;3.53;2.00;;;4.80;99.90;;;;;;4959278;28;20502;-72
2023/11/25 12:30:43;;;;;;;5.30;1.70;;;4.90;99.90;;;;;;4959672;28;20467;-73
2023/11/25 12:33:10;;;;;;;3.07;1.90;;;5.00;99.90;;;;;;4956237;28;20170;-74
2023/11/25 12:35:37;;;;;;;3.70;1.83;;;4.80;99.90;;;;;;4953248;28;20272;-72
2023/11/25 12:38:05;;;;;;;1.83;1.57;;;4.70;99.90;;;;;;4955614;28;20452;-71
2023/11/25 12:40:31;;;;;;;3.10;2.40;;;4.60;99.90;;;;;;4955527;28;20472;-73
2023/11/25 12:42:57;;;;;;;1.57;1.40;;;4.50;99.90;;;;;;4955825;28;20455;-74
2023/11/25 12:45:33;;;;;;;2.10;1.90;;;4.50;99.90;;;;;;4955768;28;20952;-72
2023/11/25 12:48:00;;;;;;;1.30;1.20;;;4.40;99.90;;;;;;4955454;28;20232;-72
2023/11/25 12:50:28;;;;;;;2.50;1.80;;;4.40;99.90;;;;;;4955466;28;20460;-73
2023/11/25 12:53:13;;;;;;;2.07;1.60;;;4.50;99.90;;;;;;4955604;28;20435;-72
2023/11/25 12:55:44;;;;;;;2.37;1.80;;;4.50;99.90;;;;;;4949418;29;20437;-72